sensor_id;sensor_type;location;lat;lon;timestamp;P1;durP1;ratioP1;P2;durP2;ratioP2
23388;SDS011;11867;51.198;11.966;2023-05-10T00:00:16;5.07;;;4.57;;
23388;SDS011;11867;51.198;11.966;2023-05-10T00:01:39;7.60;;;5.03;;
23388;SDS011;11867;51.198;11.966;2023-05-10T00:03:02;6.97;;;5.15;;
23388;SDS011;11867;51.198;11.966;2023-05-10T00:04:26;5.93;;;4.90;;
23388;SDS011;11867;51.198;11.966;2023-05-10T00:05:49;6.30;;;5.05;;
23388;SDS011;11867;51.198;11.966;2023-05-10T00:07:11;6.43;;;5.00;;
23388;SDS011;11867;51.198;11.966;2023-05-10T00:08:34;7.50;;;5.32;;
23388;SDS011;11867;51.198;11.966;2023-05-10T00:09:56;7.07;;;6.00;;
23388;SDS011;11867;51.198;11.966;2023-05-10T00:11:19;6.78;;;6.07;;
23388;SDS011;11867;51.198;11.966;2023-05-10T00:12:43;9.57;;;5.50;;
23388;SDS011;11867;51.198;11.966;2023-05-10T00:14:06;6.43;;;5.43;;
23388;SDS011;11867;51.198;11.966;2023-05-10T00:15:30;7.25;;;5.47;;
23388;SDS011;11867;51.198;11.966;2023-05-10T00:16:52;6.32;;;5.63;;
23388;SDS011;11867;51.198;11.966;2023-05-10T00:18:15;9.48;;;5.75;;
23388;SDS011;11867;51.198;11.966;2023-05-10T00:19:38;8.52;;;5.13;;
23388;SDS011;11867;51.198;11.966;2023-05-10T00:21:00;8.63;;;5.68;;
23388;SDS011;11867;51.198;11.966;2023-05-10T00:22:23;5.88;;;5.28;;
23388;SDS011;11867;51.198;11.966;2023-05-10T00:23:45;6.00;;;5.35;;
23388;SDS011;11867;51.198;11.966;2023-05-10T00:25:08;6.90;;;5.57;;
23388;SDS011;11867;51.198;11.966;2023-05-10T00:26:30;7.93;;;5.75;;
23388;SDS011;11867;51.198;11.966;2023-05-10T00:27:53;6.43;;;5.15;;
23388;SDS011;11867;51.198;11.966;2023-05-10T00:29:16;12.32;;;5.78;;
23388;SDS011;11867;51.198;11.966;2023-05-10T00:30:40;7.82;;;5.78;;
23388;SDS011;11867;51.198;11.966;2023-05-10T00:32:03;8.95;;;5.70;;
23388;SDS011;11867;51.198;11.966;2023-05-10T00:33:27;6.85;;;5.40;;
23388;SDS011;11867;51.198;11.966;2023-05-10T00:34:50;6.53;;;5.60;;
23388;SDS011;11867;51.198;11.966;2023-05-10T00:36:13;7.35;;;5.47;;
23388;SDS011;11867;51.198;11.966;2023-05-10T00:37:35;8.25;;;5.95;;
23388;SDS011;11867;51.198;11.966;2023-05-10T00:38:57;6.10;;;5.50;;
23388;SDS011;11867;51.198;11.966;2023-05-10T00:40:20;6.63;;;5.78;;
23388;SDS011;11867;51.198;11.966;2023-05-10T00:41:42;9.70;;;5.57;;
23388;SDS011;11867;51.198;11.966;2023-05-10T00:43:05;6.72;;;5.45;;
23388;SDS011;11867;51.198;11.966;2023-05-10T00:44:28;6.13;;;5.45;;
23388;SDS011;11867;51.198;11.966;2023-05-10T00:45:51;8.75;;;5.60;;
23388;SDS011;11867;51.198;11.966;2023-05-10T00:47:15;6.05;;;5.43;;
23388;SDS011;11867;51.198;11.966;2023-05-10T00:48:38;7.50;;;6.00;;
23388;SDS011;11867;51.198;11.966;2023-05-10T00:50:00;6.63;;;5.68;;
23388;SDS011;11867;51.198;11.966;2023-05-10T00:51:24;8.77;;;6.00;;
23388;SDS011;11867;51.198;11.966;2023-05-10T00:52:46;6.57;;;5.40;;
23388;SDS011;11867;51.198;11.966;2023-05-10T00:54:09;7.15;;;5.88;;
23388;SDS011;11867;51.198;11.966;2023-05-10T00:55:33;6.93;;;5.13;;
23388;SDS011;11867;51.198;11.966;2023-05-10T00:56:56;5.93;;;5.35;;
23388;SDS011;11867;51.198;11.966;2023-05-10T00:58:18;5.63;;;5.13;;
23388;SDS011;11867;51.198;11.966;2023-05-10T00:59:41;7.95;;;6.05;;
23388;SDS011;11867;51.198;11.966;2023-05-10T01:01:04;6.70;;;5.47;;
23388;SDS011;11867;51.198;11.966;2023-05-10T01:02:28;7.85;;;5.75;;
23388;SDS011;11867;51.198;11.966;2023-05-10T01:03:50;6.85;;;5.50;;
23388;SDS011;11867;51.198;11.966;2023-05-10T01:05:13;6.85;;;4.72;;
23388;SDS011;11867;51.198;11.966;2023-05-10T01:06:35;5.95;;;5.35;;
23388;SDS011;11867;51.198;11.966;2023-05-10T01:07:58;6.47;;;5.88;;
23388;SDS011;11867;51.198;11.966;2023-05-10T01:09:20;6.88;;;5.40;;
23388;SDS011;11867;51.198;11.966;2023-05-10T01:10:44;6.18;;;5.45;;
23388;SDS011;11867;51.198;11.966;2023-05-10T01:12:07;7.05;;;5.30;;
23388;SDS011;11867;51.198;11.966;2023-05-10T01:13:31;6.78;;;5.60;;
23388;SDS011;11867;51.198;11.966;2023-05-10T01:14:56;6.43;;;5.82;;
23388;SDS011;11867;51.198;11.966;2023-05-10T01:16:21;6.07;;;5.47;;
23388;SDS011;11867;51.198;11.966;2023-05-10T01:17:44;8.68;;;5.53;;
23388;SDS011;11867;51.198;11.966;2023-05-10T01:19:11;6.90;;;5.45;;
23388;SDS011;11867;51.198;11.966;2023-05-10T01:20:39;5.72;;;4.85;;
23388;SDS011;11867;51.198;11.966;2023-05-10T01:22:07;6.63;;;5.38;;
23388;SDS011;11867;51.198;11.966;2023-05-10T01:23:45;6.50;;;5.10;;
23388;SDS011;11867;51.198;11.966;2023-05-10T01:27:42;5.90;;;5.22;;
23388;SDS011;11867;51.198;11.966;2023-05-10T01:29:31;6.43;;;5.25;;
23388;SDS011;11867;51.198;11.966;2023-05-10T01:33:22;6.03;;;5.43;;
23388;SDS011;11867;51.198;11.966;2023-05-10T01:36:19;6.63;;;5.40;;
23388;SDS011;11867;51.198;11.966;2023-05-10T01:37:49;5.65;;;4.90;;
23388;SDS011;11867;51.198;11.966;2023-05-10T01:39:20;5.43;;;4.65;;
23388;SDS011;11867;51.198;11.966;2023-05-10T01:40:52;5.87;;;5.27;;
23388;SDS011;11867;51.198;11.966;2023-05-10T01:42:25;6.20;;;5.53;;
23388;SDS011;11867;51.198;11.966;2023-05-10T01:43:54;7.60;;;4.93;;
23388;SDS011;11867;51.198;11.966;2023-05-10T01:45:21;6.35;;;4.88;;
23388;SDS011;11867;51.198;11.966;2023-05-10T01:46:52;5.90;;;4.88;;
23388;SDS011;11867;51.198;11.966;2023-05-10T01:48:17;5.32;;;4.78;;
23388;SDS011;11867;51.198;11.966;2023-05-10T01:49:43;5.57;;;5.03;;
23388;SDS011;11867;51.198;11.966;2023-05-10T01:51:10;7.38;;;5.28;;
23388;SDS011;11867;51.198;11.966;2023-05-10T01:52:33;5.82;;;4.97;;
23388;SDS011;11867;51.198;11.966;2023-05-10T01:54:00;6.05;;;5.40;;
23388;SDS011;11867;51.198;11.966;2023-05-10T01:55:24;5.35;;;4.85;;
23388;SDS011;11867;51.198;11.966;2023-05-10T01:56:52;5.32;;;4.70;;
23388;SDS011;11867;51.198;11.966;2023-05-10T01:58:19;6.38;;;4.65;;
23388;SDS011;11867;51.198;11.966;2023-05-10T01:59:45;6.93;;;5.18;;
23388;SDS011;11867;51.198;11.966;2023-05-10T02:01:11;8.55;;;5.43;;
23388;SDS011;11867;51.198;11.966;2023-05-10T02:02:36;7.38;;;5.95;;
23388;SDS011;11867;51.198;11.966;2023-05-10T02:04:01;6.38;;;5.63;;
23388;SDS011;11867;51.198;11.966;2023-05-10T02:05:27;6.85;;;5.75;;
23388;SDS011;11867;51.198;11.966;2023-05-10T02:06:51;5.47;;;4.97;;
23388;SDS011;11867;51.198;11.966;2023-05-10T02:08:16;7.55;;;5.63;;
23388;SDS011;11867;51.198;11.966;2023-05-10T02:09:41;6.93;;;5.40;;
23388;SDS011;11867;51.198;11.966;2023-05-10T02:11:08;7.00;;;5.30;;
23388;SDS011;11867;51.198;11.966;2023-05-10T02:12:35;7.18;;;5.22;;
23388;SDS011;11867;51.198;11.966;2023-05-10T02:13:59;8.65;;;5.63;;
23388;SDS011;11867;51.198;11.966;2023-05-10T02:15:22;5.80;;;5.05;;
23388;SDS011;11867;51.198;11.966;2023-05-10T02:16:46;5.38;;;4.82;;
23388;SDS011;11867;51.198;11.966;2023-05-10T02:18:10;6.22;;;5.32;;
23388;SDS011;11867;51.198;11.966;2023-05-10T02:19:36;8.77;;;5.00;;
23388;SDS011;11867;51.198;11.966;2023-05-10T02:21:00;7.90;;;6.03;;
23388;SDS011;11867;51.198;11.966;2023-05-10T02:22:24;8.13;;;6.00;;
23388;SDS011;11867;51.198;11.966;2023-05-10T02:23:48;7.13;;;5.65;;
23388;SDS011;11867;51.198;11.966;2023-05-10T02:25:14;9.20;;;6.10;;
23388;SDS011;11867;51.198;11.966;2023-05-10T02:26:37;8.23;;;5.70;;
23388;SDS011;11867;51.198;11.966;2023-05-10T02:28:01;7.57;;;5.13;;
23388;SDS011;11867;51.198;11.966;2023-05-10T02:29:27;7.25;;;6.03;;
23388;SDS011;11867;51.198;11.966;2023-05-10T02:30:50;7.68;;;5.70;;
23388;SDS011;11867;51.198;11.966;2023-05-10T02:32:14;6.82;;;5.63;;
23388;SDS011;11867;51.198;11.966;2023-05-10T02:33:38;6.88;;;5.68;;
23388;SDS011;11867;51.198;11.966;2023-05-10T02:35:02;8.10;;;5.93;;
23388;SDS011;11867;51.198;11.966;2023-05-10T02:36:28;11.25;;;6.25;;
23388;SDS011;11867;51.198;11.966;2023-05-10T02:37:52;7.57;;;6.30;;
23388;SDS011;11867;51.198;11.966;2023-05-10T02:39:15;7.57;;;5.93;;
23388;SDS011;11867;51.198;11.966;2023-05-10T02:40:40;12.85;;;6.50;;
23388;SDS011;11867;51.198;11.966;2023-05-10T02:42:04;9.00;;;6.53;;
23388;SDS011;11867;51.198;11.966;2023-05-10T02:43:28;12.15;;;6.50;;
23388;SDS011;11867;51.198;11.966;2023-05-10T02:44:54;12.82;;;5.95;;
23388;SDS011;11867;51.198;11.966;2023-05-10T02:46:22;9.93;;;6.25;;
23388;SDS011;11867;51.198;11.966;2023-05-10T02:47:46;9.65;;;6.35;;
23388;SDS011;11867;51.198;11.966;2023-05-10T02:49:08;9.43;;;6.15;;
23388;SDS011;11867;51.198;11.966;2023-05-10T02:50:32;9.38;;;5.93;;
23388;SDS011;11867;51.198;11.966;2023-05-10T02:51:57;8.75;;;5.50;;
23388;SDS011;11867;51.198;11.966;2023-05-10T02:53:32;6.18;;;5.57;;
23388;SDS011;11867;51.198;11.966;2023-05-10T02:54:58;7.10;;;5.05;;
23388;SDS011;11867;51.198;11.966;2023-05-10T02:56:25;7.63;;;5.65;;
23388;SDS011;11867;51.198;11.966;2023-05-10T02:57:55;8.27;;;5.80;;
23388;SDS011;11867;51.198;11.966;2023-05-10T02:59:20;8.05;;;5.60;;
23388;SDS011;11867;51.198;11.966;2023-05-10T03:00:43;6.22;;;5.63;;
23388;SDS011;11867;51.198;11.966;2023-05-10T03:02:05;8.20;;;5.50;;
23388;SDS011;11867;51.198;11.966;2023-05-10T03:03:28;10.02;;;5.88;;
23388;SDS011;11867;51.198;11.966;2023-05-10T03:04:51;6.88;;;5.32;;
23388;SDS011;11867;51.198;11.966;2023-05-10T03:06:13;7.68;;;5.57;;
23388;SDS011;11867;51.198;11.966;2023-05-10T03:07:37;6.80;;;5.38;;
23388;SDS011;11867;51.198;11.966;2023-05-10T03:08:59;7.68;;;5.78;;
23388;SDS011;11867;51.198;11.966;2023-05-10T03:10:22;8.77;;;5.97;;
23388;SDS011;11867;51.198;11.966;2023-05-10T03:11:54;6.40;;;5.70;;
23388;SDS011;11867;51.198;11.966;2023-05-10T03:13:25;7.03;;;5.22;;
23388;SDS011;11867;51.198;11.966;2023-05-10T03:14:56;7.47;;;5.10;;
23388;SDS011;11867;51.198;11.966;2023-05-10T03:16:29;6.50;;;5.55;;
23388;SDS011;11867;51.198;11.966;2023-05-10T03:18:06;6.55;;;5.28;;
23388;SDS011;11867;51.198;11.966;2023-05-10T03:19:32;8.23;;;5.70;;
23388;SDS011;11867;51.198;11.966;2023-05-10T03:21:01;6.55;;;5.47;;
23388;SDS011;11867;51.198;11.966;2023-05-10T03:22:29;7.50;;;5.88;;
23388;SDS011;11867;51.198;11.966;2023-05-10T03:23:58;7.45;;;5.60;;
23388;SDS011;11867;51.198;11.966;2023-05-10T03:25:22;5.15;;;4.57;;
23388;SDS011;11867;51.198;11.966;2023-05-10T03:26:46;6.82;;;5.88;;
23388;SDS011;11867;51.198;11.966;2023-05-10T03:28:09;8.30;;;5.70;;
23388;SDS011;11867;51.198;11.966;2023-05-10T03:29:32;6.75;;;5.95;;
23388;SDS011;11867;51.198;11.966;2023-05-10T03:30:56;7.72;;;5.43;;
23388;SDS011;11867;51.198;11.966;2023-05-10T03:32:19;6.43;;;5.15;;
23388;SDS011;11867;51.198;11.966;2023-05-10T03:33:47;8.93;;;5.53;;
23388;SDS011;11867;51.198;11.966;2023-05-10T03:35:11;7.40;;;5.40;;
23388;SDS011;11867;51.198;11.966;2023-05-10T03:36:35;6.55;;;5.30;;
23388;SDS011;11867;51.198;11.966;2023-05-10T03:37:58;5.40;;;4.75;;
23388;SDS011;11867;51.198;11.966;2023-05-10T03:39:23;5.45;;;4.90;;
23388;SDS011;11867;51.198;11.966;2023-05-10T03:40:46;6.68;;;5.30;;
23388;SDS011;11867;51.198;11.966;2023-05-10T03:42:09;7.45;;;5.53;;
23388;SDS011;11867;51.198;11.966;2023-05-10T03:43:33;6.03;;;5.03;;
23388;SDS011;11867;51.198;11.966;2023-05-10T03:44:56;6.53;;;5.47;;
23388;SDS011;11867;51.198;11.966;2023-05-10T03:46:18;7.60;;;5.20;;
23388;SDS011;11867;51.198;11.966;2023-05-10T03:47:41;6.93;;;4.57;;
23388;SDS011;11867;51.198;11.966;2023-05-10T03:49:03;5.45;;;4.82;;
23388;SDS011;11867;51.198;11.966;2023-05-10T03:50:26;5.40;;;4.50;;
23388;SDS011;11867;51.198;11.966;2023-05-10T03:51:49;7.68;;;4.35;;
23388;SDS011;11867;51.198;11.966;2023-05-10T03:53:11;6.30;;;5.05;;
23388;SDS011;11867;51.198;11.966;2023-05-10T03:54:35;7.07;;;4.78;;
23388;SDS011;11867;51.198;11.966;2023-05-10T03:55:57;5.72;;;4.13;;
23388;SDS011;11867;51.198;11.966;2023-05-10T03:57:19;4.88;;;4.35;;
23388;SDS011;11867;51.198;11.966;2023-05-10T03:58:42;5.95;;;4.80;;
23388;SDS011;11867;51.198;11.966;2023-05-10T04:00:04;5.70;;;4.80;;
23388;SDS011;11867;51.198;11.966;2023-05-10T04:01:28;5.35;;;4.32;;
23388;SDS011;11867;51.198;11.966;2023-05-10T04:02:49;8.02;;;5.03;;
23388;SDS011;11867;51.198;11.966;2023-05-10T04:04:12;5.93;;;4.63;;
23388;SDS011;11867;51.198;11.966;2023-05-10T04:05:36;4.68;;;4.28;;
23388;SDS011;11867;51.198;11.966;2023-05-10T04:06:58;6.60;;;4.55;;
23388;SDS011;11867;51.198;11.966;2023-05-10T04:08:20;10.57;;;4.43;;
23388;SDS011;11867;51.198;11.966;2023-05-10T04:09:44;5.13;;;4.63;;
23388;SDS011;11867;51.198;11.966;2023-05-10T04:11:06;8.25;;;4.85;;
23388;SDS011;11867;51.198;11.966;2023-05-10T04:12:30;5.10;;;4.60;;
23388;SDS011;11867;51.198;11.966;2023-05-10T04:13:53;6.13;;;4.70;;
23388;SDS011;11867;51.198;11.966;2023-05-10T04:15:15;6.30;;;4.50;;
23388;SDS011;11867;51.198;11.966;2023-05-10T04:16:38;5.10;;;4.32;;
23388;SDS011;11867;51.198;11.966;2023-05-10T04:17:59;6.78;;;4.22;;
23388;SDS011;11867;51.198;11.966;2023-05-10T04:19:22;4.78;;;4.18;;
23388;SDS011;11867;51.198;11.966;2023-05-10T04:20:45;4.97;;;4.47;;
23388;SDS011;11867;51.198;11.966;2023-05-10T04:22:07;5.57;;;4.05;;
23388;SDS011;11867;51.198;11.966;2023-05-10T04:23:30;5.07;;;4.38;;
23388;SDS011;11867;51.198;11.966;2023-05-10T04:24:53;4.43;;;4.03;;
23388;SDS011;11867;51.198;11.966;2023-05-10T04:26:16;8.88;;;4.47;;
23388;SDS011;11867;51.198;11.966;2023-05-10T04:27:38;6.00;;;4.32;;
23388;SDS011;11867;51.198;11.966;2023-05-10T04:29:01;5.28;;;4.70;;
23388;SDS011;11867;51.198;11.966;2023-05-10T04:30:24;5.80;;;4.85;;
23388;SDS011;11867;51.198;11.966;2023-05-10T04:31:47;4.95;;;4.45;;
23388;SDS011;11867;51.198;11.966;2023-05-10T04:33:10;4.40;;;3.75;;
23388;SDS011;11867;51.198;11.966;2023-05-10T04:34:33;4.35;;;3.95;;
23388;SDS011;11867;51.198;11.966;2023-05-10T04:35:55;5.03;;;4.15;;
23388;SDS011;11867;51.198;11.966;2023-05-10T04:37:18;5.97;;;4.55;;
23388;SDS011;11867;51.198;11.966;2023-05-10T04:38:42;9.35;;;4.40;;
23388;SDS011;11867;51.198;11.966;2023-05-10T04:40:07;6.45;;;4.05;;
23388;SDS011;11867;51.198;11.966;2023-05-10T04:41:30;5.82;;;4.00;;
23388;SDS011;11867;51.198;11.966;2023-05-10T04:42:53;7.47;;;4.13;;
23388;SDS011;11867;51.198;11.966;2023-05-10T04:44:16;4.25;;;3.85;;
23388;SDS011;11867;51.198;11.966;2023-05-10T04:45:39;6.13;;;4.00;;
23388;SDS011;11867;51.198;11.966;2023-05-10T04:47:02;5.40;;;4.10;;
23388;SDS011;11867;51.198;11.966;2023-05-10T04:48:25;7.00;;;4.72;;
23388;SDS011;11867;51.198;11.966;2023-05-10T04:49:48;5.78;;;3.92;;
23388;SDS011;11867;51.198;11.966;2023-05-10T04:51:10;6.53;;;3.67;;
23388;SDS011;11867;51.198;11.966;2023-05-10T04:52:33;7.75;;;4.47;;
23388;SDS011;11867;51.198;11.966;2023-05-10T04:53:55;5.93;;;3.78;;
23388;SDS011;11867;51.198;11.966;2023-05-10T04:55:28;4.45;;;4.05;;
23388;SDS011;11867;51.198;11.966;2023-05-10T04:56:51;5.45;;;3.85;;
23388;SDS011;11867;51.198;11.966;2023-05-10T04:58:13;6.55;;;3.38;;
23388;SDS011;11867;51.198;11.966;2023-05-10T04:59:36;7.25;;;4.30;;
23388;SDS011;11867;51.198;11.966;2023-05-10T05:01:04;7.45;;;4.20;;
23388;SDS011;11867;51.198;11.966;2023-05-10T05:02:27;7.25;;;4.10;;
23388;SDS011;11867;51.198;11.966;2023-05-10T05:03:50;8.18;;;4.05;;
23388;SDS011;11867;51.198;11.966;2023-05-10T05:05:14;5.20;;;3.90;;
23388;SDS011;11867;51.198;11.966;2023-05-10T05:06:37;10.90;;;5.28;;
23388;SDS011;11867;51.198;11.966;2023-05-10T05:08:00;7.18;;;3.80;;
23388;SDS011;11867;51.198;11.966;2023-05-10T05:09:23;6.90;;;4.20;;
23388;SDS011;11867;51.198;11.966;2023-05-10T05:10:46;8.45;;;4.30;;
23388;SDS011;11867;51.198;11.966;2023-05-10T05:12:11;7.13;;;4.43;;
23388;SDS011;11867;51.198;11.966;2023-05-10T05:13:35;8.50;;;4.97;;
23388;SDS011;11867;51.198;11.966;2023-05-10T05:14:58;8.88;;;6.07;;
23388;SDS011;11867;51.198;11.966;2023-05-10T05:16:20;9.75;;;7.10;;
23388;SDS011;11867;51.198;11.966;2023-05-10T05:17:43;8.63;;;6.38;;
23388;SDS011;11867;51.198;11.966;2023-05-10T05:19:06;9.57;;;6.85;;
23388;SDS011;11867;51.198;11.966;2023-05-10T05:20:31;7.82;;;5.43;;
23388;SDS011;11867;51.198;11.966;2023-05-10T05:21:54;8.60;;;4.55;;
23388;SDS011;11867;51.198;11.966;2023-05-10T05:23:17;6.18;;;5.20;;
23388;SDS011;11867;51.198;11.966;2023-05-10T05:24:42;8.30;;;5.53;;
23388;SDS011;11867;51.198;11.966;2023-05-10T05:26:06;5.05;;;4.50;;
23388;SDS011;11867;51.198;11.966;2023-05-10T05:27:29;8.25;;;4.70;;
23388;SDS011;11867;51.198;11.966;2023-05-10T05:28:52;4.90;;;4.30;;
23388;SDS011;11867;51.198;11.966;2023-05-10T05:30:16;7.45;;;4.43;;
23388;SDS011;11867;51.198;11.966;2023-05-10T05:31:39;7.35;;;4.75;;
23388;SDS011;11867;51.198;11.966;2023-05-10T05:33:02;5.68;;;3.85;;
23388;SDS011;11867;51.198;11.966;2023-05-10T05:34:25;7.95;;;4.22;;
23388;SDS011;11867;51.198;11.966;2023-05-10T05:35:48;3.83;;;3.42;;
23388;SDS011;11867;51.198;11.966;2023-05-10T05:37:12;7.20;;;4.60;;
23388;SDS011;11867;51.198;11.966;2023-05-10T05:38:34;6.78;;;4.65;;
23388;SDS011;11867;51.198;11.966;2023-05-10T05:39:57;7.15;;;4.25;;
23388;SDS011;11867;51.198;11.966;2023-05-10T05:41:23;10.25;;;5.00;;
23388;SDS011;11867;51.198;11.966;2023-05-10T05:42:47;8.85;;;4.35;;
23388;SDS011;11867;51.198;11.966;2023-05-10T05:44:10;10.48;;;5.15;;
23388;SDS011;11867;51.198;11.966;2023-05-10T05:45:33;11.07;;;5.30;;
23388;SDS011;11867;51.198;11.966;2023-05-10T05:46:56;4.28;;;3.55;;
23388;SDS011;11867;51.198;11.966;2023-05-10T05:48:19;7.95;;;3.88;;
23388;SDS011;11867;51.198;11.966;2023-05-10T05:49:42;4.53;;;3.47;;
23388;SDS011;11867;51.198;11.966;2023-05-10T05:51:04;6.82;;;3.70;;
23388;SDS011;11867;51.198;11.966;2023-05-10T05:52:28;8.10;;;3.78;;
23388;SDS011;11867;51.198;11.966;2023-05-10T05:53:50;5.38;;;3.83;;
23388;SDS011;11867;51.198;11.966;2023-05-10T05:55:13;9.23;;;4.25;;
23388;SDS011;11867;51.198;11.966;2023-05-10T05:56:38;8.48;;;3.92;;
23388;SDS011;11867;51.198;11.966;2023-05-10T05:58:01;7.03;;;3.70;;
23388;SDS011;11867;51.198;11.966;2023-05-10T05:59:24;6.43;;;3.30;;
23388;SDS011;11867;51.198;11.966;2023-05-10T06:00:47;7.82;;;3.33;;
23388;SDS011;11867;51.198;11.966;2023-05-10T06:02:10;4.03;;;3.30;;
23388;SDS011;11867;51.198;11.966;2023-05-10T06:03:33;6.60;;;3.55;;
23388;SDS011;11867;51.198;11.966;2023-05-10T06:04:56;6.88;;;3.35;;
23388;SDS011;11867;51.198;11.966;2023-05-10T06:06:18;3.38;;;3.03;;
23388;SDS011;11867;51.198;11.966;2023-05-10T06:07:41;5.28;;;3.08;;
23388;SDS011;11867;51.198;11.966;2023-05-10T06:09:03;3.58;;;3.28;;
23388;SDS011;11867;51.198;11.966;2023-05-10T06:10:26;7.95;;;3.63;;
23388;SDS011;11867;51.198;11.966;2023-05-10T06:11:50;5.53;;;3.55;;
23388;SDS011;11867;51.198;11.966;2023-05-10T06:13:13;5.22;;;3.50;;
23388;SDS011;11867;51.198;11.966;2023-05-10T06:14:37;15.05;;;3.50;;
23388;SDS011;11867;51.198;11.966;2023-05-10T06:15:59;8.07;;;3.55;;
23388;SDS011;11867;51.198;11.966;2023-05-10T06:17:22;6.03;;;3.35;;
23388;SDS011;11867;51.198;11.966;2023-05-10T06:18:45;5.95;;;3.30;;
23388;SDS011;11867;51.198;11.966;2023-05-10T06:20:08;9.35;;;3.67;;
23388;SDS011;11867;51.198;11.966;2023-05-10T06:21:32;3.80;;;3.50;;
23388;SDS011;11867;51.198;11.966;2023-05-10T06:22:55;4.68;;;3.22;;
23388;SDS011;11867;51.198;11.966;2023-05-10T06:24:17;4.97;;;3.50;;
23388;SDS011;11867;51.198;11.966;2023-05-10T06:25:40;6.95;;;3.38;;
23388;SDS011;11867;51.198;11.966;2023-05-10T06:27:05;4.88;;;3.78;;
23388;SDS011;11867;51.198;11.966;2023-05-10T06:28:28;5.18;;;3.60;;
23388;SDS011;11867;51.198;11.966;2023-05-10T06:29:52;5.03;;;3.53;;
23388;SDS011;11867;51.198;11.966;2023-05-10T06:31:29;3.85;;;3.55;;
23388;SDS011;11867;51.198;11.966;2023-05-10T06:32:52;5.35;;;3.63;;
23388;SDS011;11867;51.198;11.966;2023-05-10T06:34:15;4.80;;;3.70;;
23388;SDS011;11867;51.198;11.966;2023-05-10T06:35:38;4.97;;;3.50;;
23388;SDS011;11867;51.198;11.966;2023-05-10T06:37:01;5.82;;;4.07;;
23388;SDS011;11867;51.198;11.966;2023-05-10T06:38:25;4.22;;;3.60;;
23388;SDS011;11867;51.198;11.966;2023-05-10T06:39:48;4.10;;;3.70;;
23388;SDS011;11867;51.198;11.966;2023-05-10T06:41:11;4.15;;;3.75;;
23388;SDS011;11867;51.198;11.966;2023-05-10T06:42:35;4.70;;;3.92;;
23388;SDS011;11867;51.198;11.966;2023-05-10T06:43:58;9.07;;;4.13;;
23388;SDS011;11867;51.198;11.966;2023-05-10T06:45:20;5.47;;;4.03;;
23388;SDS011;11867;51.198;11.966;2023-05-10T06:46:43;7.05;;;4.25;;
23388;SDS011;11867;51.198;11.966;2023-05-10T06:48:06;5.15;;;4.65;;
23388;SDS011;11867;51.198;11.966;2023-05-10T06:49:29;5.57;;;4.50;;
23388;SDS011;11867;51.198;11.966;2023-05-10T06:50:52;5.78;;;4.47;;
23388;SDS011;11867;51.198;11.966;2023-05-10T06:52:15;4.85;;;4.32;;
23388;SDS011;11867;51.198;11.966;2023-05-10T06:53:38;5.85;;;4.45;;
23388;SDS011;11867;51.198;11.966;2023-05-10T06:55:01;7.22;;;4.68;;
23388;SDS011;11867;51.198;11.966;2023-05-10T06:56:24;5.43;;;4.53;;
23388;SDS011;11867;51.198;11.966;2023-05-10T06:57:47;9.93;;;4.43;;
23388;SDS011;11867;51.198;11.966;2023-05-10T06:59:10;7.00;;;4.50;;
23388;SDS011;11867;51.198;11.966;2023-05-10T07:00:35;5.10;;;4.45;;
23388;SDS011;11867;51.198;11.966;2023-05-10T07:02:00;5.07;;;4.60;;
23388;SDS011;11867;51.198;11.966;2023-05-10T07:03:23;10.98;;;4.43;;
23388;SDS011;11867;51.198;11.966;2023-05-10T07:04:46;10.02;;;4.78;;
23388;SDS011;11867;51.198;11.966;2023-05-10T07:06:09;6.75;;;4.30;;
23388;SDS011;11867;51.198;11.966;2023-05-10T07:07:51;6.63;;;5.18;;
23388;SDS011;11867;51.198;11.966;2023-05-10T07:09:14;6.28;;;4.90;;
23388;SDS011;11867;51.198;11.966;2023-05-10T07:10:37;7.57;;;5.03;;
23388;SDS011;11867;51.198;11.966;2023-05-10T07:12:00;7.18;;;4.78;;
23388;SDS011;11867;51.198;11.966;2023-05-10T07:13:24;6.45;;;5.28;;
23388;SDS011;11867;51.198;11.966;2023-05-10T07:14:47;8.90;;;5.53;;
23388;SDS011;11867;51.198;11.966;2023-05-10T07:16:10;6.97;;;5.30;;
23388;SDS011;11867;51.198;11.966;2023-05-10T07:17:33;7.10;;;5.28;;
23388;SDS011;11867;51.198;11.966;2023-05-10T07:18:56;11.05;;;5.97;;
23388;SDS011;11867;51.198;11.966;2023-05-10T07:20:19;7.43;;;6.00;;
23388;SDS011;11867;51.198;11.966;2023-05-10T07:21:42;13.15;;;6.07;;
23388;SDS011;11867;51.198;11.966;2023-05-10T07:23:04;10.20;;;6.05;;
23388;SDS011;11867;51.198;11.966;2023-05-10T07:24:27;8.25;;;5.82;;
23388;SDS011;11867;51.198;11.966;2023-05-10T07:25:51;9.85;;;5.85;;
23388;SDS011;11867;51.198;11.966;2023-05-10T07:27:14;8.63;;;5.80;;
23388;SDS011;11867;51.198;11.966;2023-05-10T07:28:39;8.90;;;5.47;;
23388;SDS011;11867;51.198;11.966;2023-05-10T07:30:02;7.88;;;5.47;;
23388;SDS011;11867;51.198;11.966;2023-05-10T07:31:25;7.80;;;5.72;;
23388;SDS011;11867;51.198;11.966;2023-05-10T07:32:48;6.50;;;5.25;;
23388;SDS011;11867;51.198;11.966;2023-05-10T07:34:11;7.85;;;5.60;;
23388;SDS011;11867;51.198;11.966;2023-05-10T07:35:33;6.95;;;5.00;;
23388;SDS011;11867;51.198;11.966;2023-05-10T07:36:57;8.63;;;5.68;;
23388;SDS011;11867;51.198;11.966;2023-05-10T07:38:20;6.13;;;5.00;;
23388;SDS011;11867;51.198;11.966;2023-05-10T07:39:43;8.20;;;5.93;;
23388;SDS011;11867;51.198;11.966;2023-05-10T07:41:06;6.65;;;5.03;;
23388;SDS011;11867;51.198;11.966;2023-05-10T07:42:29;5.60;;;4.95;;
23388;SDS011;11867;51.198;11.966;2023-05-10T07:43:53;7.75;;;5.00;;
23388;SDS011;11867;51.198;11.966;2023-05-10T07:45:16;7.18;;;4.90;;
23388;SDS011;11867;51.198;11.966;2023-05-10T07:46:39;5.07;;;4.65;;
23388;SDS011;11867;51.198;11.966;2023-05-10T07:48:02;6.82;;;5.13;;
23388;SDS011;11867;51.198;11.966;2023-05-10T07:49:25;9.50;;;5.25;;
23388;SDS011;11867;51.198;11.966;2023-05-10T07:50:48;9.13;;;5.55;;
23388;SDS011;11867;51.198;11.966;2023-05-10T07:52:11;5.68;;;5.07;;
23388;SDS011;11867;51.198;11.966;2023-05-10T07:53:35;6.60;;;5.18;;
23388;SDS011;11867;51.198;11.966;2023-05-10T07:54:58;7.35;;;4.95;;
23388;SDS011;11867;51.198;11.966;2023-05-10T07:56:20;6.97;;;5.75;;
23388;SDS011;11867;51.198;11.966;2023-05-10T07:57:46;7.28;;;5.32;;
23388;SDS011;11867;51.198;11.966;2023-05-10T07:59:14;5.70;;;4.82;;
23388;SDS011;11867;51.198;11.966;2023-05-10T08:00:38;6.72;;;5.18;;
23388;SDS011;11867;51.198;11.966;2023-05-10T08:02:02;8.52;;;5.55;;
23388;SDS011;11867;51.198;11.966;2023-05-10T08:03:25;7.13;;;5.20;;
23388;SDS011;11867;51.198;11.966;2023-05-10T08:04:48;10.63;;;4.80;;
23388;SDS011;11867;51.198;11.966;2023-05-10T08:06:11;6.10;;;5.05;;
23388;SDS011;11867;51.198;11.966;2023-05-10T08:07:34;5.60;;;5.10;;
23388;SDS011;11867;51.198;11.966;2023-05-10T08:08:57;6.20;;;5.18;;
23388;SDS011;11867;51.198;11.966;2023-05-10T08:10:20;4.93;;;4.43;;
23388;SDS011;11867;51.198;11.966;2023-05-10T08:11:43;6.70;;;4.50;;
23388;SDS011;11867;51.198;11.966;2023-05-10T08:13:05;6.53;;;4.75;;
23388;SDS011;11867;51.198;11.966;2023-05-10T08:14:30;6.88;;;4.18;;
23388;SDS011;11867;51.198;11.966;2023-05-10T08:15:53;5.22;;;4.53;;
23388;SDS011;11867;51.198;11.966;2023-05-10T08:17:16;5.43;;;4.38;;
23388;SDS011;11867;51.198;11.966;2023-05-10T08:18:41;5.85;;;5.25;;
23388;SDS011;11867;51.198;11.966;2023-05-10T08:20:04;4.63;;;4.22;;
23388;SDS011;11867;51.198;11.966;2023-05-10T08:21:28;4.93;;;4.45;;
23388;SDS011;11867;51.198;11.966;2023-05-10T08:22:52;5.93;;;4.40;;
23388;SDS011;11867;51.198;11.966;2023-05-10T08:24:15;4.97;;;3.88;;